Time;durP1;ratioP1;P1;durP2;ratioP2;P2;SDS_P1;SDS_P2;PMS_P1;PMS_P2;Temp;Humidity;BMP_temperature;BMP_pressure;BME280_temperature;BME280_humidity;BME280_pressure;Samples;Min_cycle;Max_cycle;Signal;HPM_P1;HPM_P2
2023/03/01 00:01:21;;;;;;;13.07;11.70;;;2.20;6.20;;;;;;5060205;28;20207;-75
2023/03/01 00:03:49;;;;;;;13.18;11.88;;;2.30;6.40;;;;;;5061515;28;20232;-74
2023/03/01 00:06:19;;;;;;;12.63;11.32;;;2.20;5.10;;;;;;5066113;28;20220;-75
2023/03/01 00:08:48;;;;;;;13.57;11.68;;;2.30;6.10;;;;;;5061672;28;20238;-75
2023/03/01 00:11:18;;;;;;;14.10;11.38;;;2.30;6.50;;;;;;5057586;28;20211;-79
2023/03/01 00:13:48;;;;;;;14.30;11.77;;;2.30;6.40;;;;;;5056522;28;20235;-76
2023/03/01 00:16:18;;;;;;;15.05;11.82;;;2.20;6.70;;;;;;5059163;28;20216;-76
2023/03/01 00:18:47;;;;;;;16.13;12.68;;;2.20;6.70;;;;;;5060492;28;20196;-77
2023/03/01 00:21:15;;;;;;;13.80;11.18;;;2.20;7.10;;;;;;5060578;28;21051;-75
2023/03/01 00:23:44;;;;;;;12.45;11.15;;;2.20;8.10;;;;;;5059231;28;20291;-75
2023/03/01 00:26:14;;;;;;;14.25;11.43;;;2.10;7.80;;;;;;5059051;28;20363;-78
2023/03/01 00:28:43;;;;;;;15.88;11.57;;;2.10;8.60;;;;;;5048153;28;20325;-76
2023/03/01 00:31:14;;;;;;;12.45;11.15;;;2.10;7.30;;;;;;5051569;28;20292;-73
2023/03/01 00:33:43;;;;;;;13.88;12.50;;;2.00;7.90;;;;;;5047992;28;20204;-76
2023/03/01 00:36:13;;;;;;;13.60;10.70;;;2.00;8.40;;;;;;5051851;28;20216;-75
2023/03/01 00:38:45;;;;;;;13.38;11.50;;;2.00;7.20;;;;;;5058223;28;20227;-74
2023/03/01 00:41:15;;;;;;;13.55;11.60;;;2.00;13.60;;;;;;5061126;28;20207;-75
2023/03/01 00:43:44;;;;;;;13.00;11.60;;;2.00;8.20;;;;;;5061937;28;20235;-74
2023/03/01 00:46:14;;;;;;;15.02;11.43;;;1.90;7.60;;;;;;5056772;28;20217;-74
2023/03/01 00:48:43;;;;;;;13.10;11.68;;;1.90;8.60;;;;;;5055690;28;20271;-74
2023/03/01 00:51:13;;;;;;;13.60;11.55;;;1.90;8.80;;;;;;5058147;28;20255;-75
2023/03/01 00:53:42;;;;;;;15.48;12.00;;;1.90;10.20;;;;;;5056822;28;20185;-78
2023/03/01 00:56:13;;;;;;;15.57;12.13;;;1.90;9.60;;;;;;5062755;28;20216;-74
2023/03/01 00:58:42;;;;;;;12.30;10.70;;;1.90;19.70;;;;;;5061436;28;20191;-77
2023/03/01 01:01:16;;;;;;;13.15;11.27;;;1.80;8.90;;;;;;5064748;28;20192;-76
2023/03/01 01:03:47;;;;;;;13.10;10.98;;;1.90;9.40;;;;;;5065912;28;20200;-73
2023/03/01 01:06:17;;;;;;;13.20;11.85;;;1.90;10.10;;;;;;5066635;28;20724;-76
2023/03/01 01:08:45;;;;;;;14.05;12.05;;;1.80;10.60;;;;;;5060912;28;20222;-76
2023/03/01 01:11:15;;;;;;;15.23;12.32;;;1.90;9.20;;;;;;5064065;28;20776;-75
2023/03/01 01:13:46;;;;;;;13.23;11.60;;;1.80;10.70;;;;;;5064568;28;20666;-76
2023/03/01 01:16:14;;;;;;;16.27;11.38;;;1.80;10.50;;;;;;5070575;28;20252;-77
2023/03/01 01:18:42;;;;;;;13.75;10.75;;;1.70;10.10;;;;;;5069517;28;20196;-76
2023/03/01 01:21:13;;;;;;;16.33;11.48;;;1.80;11.30;;;;;;5072047;28;20289;-76
2023/03/01 01:23:42;;;;;;;13.73;12.38;;;1.80;10.80;;;;;;5065349;28;20201;-76
2023/03/01 01:26:12;;;;;;;16.58;12.43;;;1.80;11.90;;;;;;5067999;28;20209;-75
2023/03/01 01:28:41;;;;;;;14.18;11.38;;;1.80;12.40;;;;;;5067814;28;21085;-77
2023/03/01 01:31:09;;;;;;;11.95;10.82;;;1.80;13.10;;;;;;5065495;28;20650;-77
2023/03/01 01:33:38;;;;;;;13.85;11.60;;;1.80;13.30;;;;;;5068196;28;20204;-76
2023/03/01 01:36:08;;;;;;;14.75;11.98;;;1.80;12.60;;;;;;5068634;28;20220;-76
2023/03/01 01:38:37;;;;;;;13.80;12.18;;;1.70;11.40;;;;;;5069194;28;20196;-75
2023/03/01 01:41:06;;;;;;;14.45;10.98;;;1.80;13.20;;;;;;5070277;28;20208;-76
2023/03/01 01:43:36;;;;;;;16.50;12.10;;;1.70;12.30;;;;;;5062094;28;20209;-75
2023/03/01 01:46:14;;;;;;;13.90;11.90;;;1.70;12.70;;;;;;5062883;28;20265;-72
2023/03/01 01:48:48;;;;;;;15.32;13.73;;;1.70;12.70;;;;;;5068155;28;20249;-76
2023/03/01 01:51:24;;;;;;;13.73;11.10;;;1.70;13.70;;;;;;5061227;28;20343;-75
2023/03/01 01:53:57;;;;;;;15.60;11.70;;;1.70;13.00;;;;;;5064262;28;20211;-75
2023/03/01 01:56:29;;;;;;;12.80;11.43;;;1.60;13.50;;;;;;5061064;28;20220;-76
2023/03/01 01:58:58;;;;;;;13.00;11.63;;;1.60;15.00;;;;;;5064975;28;20673;-77
2023/03/01 02:01:28;;;;;;;14.98;12.18;;;1.60;13.80;;;;;;5061702;28;20230;-74
2023/03/01 02:03:56;;;;;;;13.93;12.00;;;1.50;14.70;;;;;;5064626;28;20201;-76
2023/03/01 02:06:29;;;;;;;14.00;12.15;;;1.50;15.70;;;;;;5067799;28;20326;-75
2023/03/01 02:09:00;;;;;;;14.23;12.38;;;1.60;16.40;;;;;;5068088;28;20208;-78
2023/03/01 02:11:31;;;;;;;13.88;12.43;;;1.60;16.80;;;;;;5067763;28;20201;-75
2023/03/01 02:13:59;;;;;;;15.20;13.68;;;1.50;17.00;;;;;;5067446;28;20188;-73
2023/03/01 02:16:29;;;;;;;16.10;14.38;;;1.50;18.10;;;;;;5065713;28;20208;-75
2023/03/01 02:18:59;;;;;;;14.60;11.73;;;1.60;18.00;;;;;;5063476;28;20207;-76
2023/03/01 02:21:42;;;;;;;14.95;13.02;;;1.70;25.40;;;;;;5062003;28;20209;-77
2023/03/01 02:24:25;;;;;;;13.43;12.02;;;1.70;18.80;;;;;;5064995;28;20196;-76
2023/03/01 02:26:56;;;;;;;14.88;12.32;;;1.70;19.80;;;;;;5062779;28;20283;-78
2023/03/01 02:29:27;;;;;;;17.48;12.90;;;1.70;21.30;;;;;;5063381;28;20204;-75
2023/03/01 02:31:57;;;;;;;17.88;12.23;;;1.80;23.70;;;;;;5062639;28;20616;-74
2023/03/01 02:34:27;;;;;;;16.27;11.23;;;1.70;23.20;;;;;;5060634;28;20231;-76
2023/03/01 02:36:58;;;;;;;17.55;13.55;;;1.80;24.10;;;;;;5062621;28;20224;-75
2023/03/01 02:39:29;;;;;;;16.45;13.23;;;1.80;24.20;;;;;;5062053;28;20212;-78
2023/03/01 02:41:58;;;;;;;13.50;12.10;;;1.90;25.00;;;;;;5062144;28;20201;-76
2023/03/01 02:44:28;;;;;;;15.00;13.10;;;1.90;25.30;;;;;;5068017;28;20208;-76
2023/03/01 02:46:58;;;;;;;14.13;12.70;;;1.90;25.90;;;;;;5064375;28;20188;-76
2023/03/01 02:49:31;;;;;;;16.67;12.95;;;1.90;26.40;;;;;;5062366;28;20200;-77
2023/03/01 02:52:26;;;;;;;14.70;12.52;;;2.00;26.40;;;;;;5063980;28;20559;-76
2023/03/01 02:55:00;;;;;;;13.80;12.48;;;2.00;26.20;;;;;;5043698;28;20645;-75
2023/03/01 02:57:31;;;;;;;13.50;12.10;;;2.00;26.80;;;;;;5060589;28;20208;-76
2023/03/01 03:00:06;;;;;;;14.65;12.50;;;2.00;27.10;;;;;;5064009;28;20673;-77
2023/03/01 03:02:38;;;;;;;14.73;12.60;;;1.90;26.70;;;;;;5065743;28;20228;-77
2023/03/01 03:05:10;;;;;;;13.88;12.38;;;1.90;27.50;;;;;;5062518;28;20964;-76
2023/03/01 03:07:40;;;;;;;14.38;12.88;;;1.90;28.50;;;;;;5063036;28;20227;-76
2023/03/01 03:10:12;;;;;;;16.13;13.57;;;2.00;29.20;;;;;;5063043;28;20232;-72
2023/03/01 03:12:40;;;;;;;15.27;12.43;;;2.00;29.60;;;;;;5062062;28;20219;-73
2023/03/01 03:15:12;;;;;;;16.52;12.75;;;1.90;29.50;;;;;;5064892;28;20227;-76
2023/03/01 03:17:42;;;;;;;16.00;12.77;;;2.00;31.10;;;;;;5058449;28;20217;-75
2023/03/01 03:20:18;;;;;;;14.70;13.20;;;2.00;45.40;;;;;;5063401;28;20196;-77
2023/03/01 03:22:47;;;;;;;17.48;12.07;;;2.00;31.80;;;;;;5061107;28;20286;-75
2023/03/01 03:25:16;;;;;;;17.05;13.38;;;2.00;30.80;;;;;;5065712;28;20216;-77
2023/03/01 03:27:47;;;;;;;14.73;12.00;;;2.10;32.00;;;;;;5061920;28;20198;-77
2023/03/01 03:30:19;;;;;;;16.80;13.95;;;2.10;32.90;;;;;;5063935;28;20184;-76
2023/03/01 03:32:52;;;;;;;15.38;13.10;;;2.10;32.60;;;;;;5060869;28;20258;-76
2023/03/01 03:35:21;;;;;;;16.35;14.45;;;2.00;46.40;;;;;;5063151;28;20216;-78
2023/03/01 03:38:05;;;;;;;14.90;13.20;;;2.10;32.90;;;;;;5058096;28;20289;-75
2023/03/01 03:40:37;;;;;;;15.27;13.20;;;2.10;32.90;;;;;;5062099;28;20220;-75
2023/03/01 03:43:07;;;;;;;19.35;13.45;;;2.20;33.50;;;;;;5043456;28;20964;-76
2023/03/01 03:45:37;;;;;;;15.80;14.15;;;2.10;33.00;;;;;;5061652;28;20220;-75
2023/03/01 03:48:07;;;;;;;16.30;13.45;;;2.10;33.30;;;;;;5062110;28;20231;-75
2023/03/01 03:50:36;;;;;;;16.17;13.77;;;2.10;33.90;;;;;;5063481;28;20185;-75
2023/03/01 03:53:06;;;;;;;16.63;13.90;;;2.10;34.40;;;;;;5062275;28;20190;-76
2023/03/01 03:55:35;;;;;;;14.13;12.63;;;2.20;35.50;;;;;;5059603;28;20232;-75
2023/03/01 03:58:06;;;;;;;16.73;13.55;;;2.20;35.60;;;;;;5059017;28;20220;-76
2023/03/01 04:00:38;;;;;;;14.43;12.60;;;2.20;35.70;;;;;;5060297;28;20209;-76
2023/03/01 04:03:06;;;;;;;15.48;13.27;;;2.20;35.40;;;;;;5048146;28;20192;-76
2023/03/01 04:05:36;;;;;;;15.57;12.60;;;2.20;35.70;;;;;;5060880;28;20220;-75
2023/03/01 04:08:06;;;;;;;13.68;11.90;;;2.20;35.40;;;;;;5064614;28;20269;-75
2023/03/01 04:10:37;;;;;;;15.93;12.77;;;2.20;35.10;;;;;;5064083;28;20221;-76
2023/03/01 04:13:06;;;;;;;14.40;12.38;;;2.20;36.50;;;;;;5064211;28;20192;-75
2023/03/01 04:15:36;;;;;;;14.95;12.95;;;2.20;35.30;;;;;;5062657;28;20227;-78
2023/03/01 04:18:05;;;;;;;17.52;14.45;;;2.20;51.40;;;;;;5056280;28;20224;-77
2023/03/01 04:20:36;;;;;;;19.60;14.05;;;2.20;37.10;;;;;;5065963;28;20293;-75
2023/03/01 04:23:15;;;;;;;15.15;13.20;;;2.30;37.20;;;;;;5059104;28;20681;-76
2023/03/01 04:25:49;;;;;;;18.13;14.82;;;2.30;37.40;;;;;;5062764;28;20228;-74
2023/03/01 04:28:17;;;;;;;22.88;14.10;;;2.30;38.60;;;;;;5060250;28;20189;-76
2023/03/01 04:30:47;;;;;;;13.57;12.15;;;2.30;38.50;;;;;;5057341;28;20197;-79
2023/03/01 04:33:15;;;;;;;15.93;13.23;;;2.30;38.00;;;;;;5062105;28;20193;-75
2023/03/01 04:35:43;;;;;;;14.48;12.32;;;2.30;38.20;;;;;;5057195;28;20290;-74
2023/03/01 04:38:11;;;;;;;17.02;13.48;;;2.30;39.40;;;;;;5061674;28;20216;-75
2023/03/01 04:40:42;;;;;;;16.55;12.77;;;2.40;40.00;;;;;;5059130;28;20202;-76
2023/03/01 04:43:11;;;;;;;15.55;13.27;;;2.30;39.80;;;;;;5059505;28;20646;-74
2023/03/01 04:45:39;;;;;;;16.52;14.60;;;2.40;41.40;;;;;;5061670;28;20224;-75
2023/03/01 04:48:09;;;;;;;16.52;13.57;;;2.40;39.90;;;;;;5063512;28;20198;-74
2023/03/01 04:50:37;;;;;;;19.52;14.32;;;2.30;39.00;;;;;;5061903;28;20205;-76
2023/03/01 04:53:05;;;;;;;19.52;14.05;;;2.40;40.20;;;;;;5063720;28;20290;-75
2023/03/01 04:55:34;;;;;;;18.70;13.55;;;2.40;41.50;;;;;;5061963;28;20279;-78
2023/03/01 04:58:03;;;;;;;17.98;14.85;;;2.40;40.60;;;;;;5064992;28;20225;-76
2023/03/01 05:00:31;;;;;;;18.42;14.23;;;2.40;41.00;;;;;;5064641;28;20210;-76
2023/03/01 05:03:01;;;;;;;15.82;14.02;;;2.40;41.20;;;;;;5060121;28;20611;-78
2023/03/01 05:05:34;;;;;;;20.17;14.32;;;2.40;41.20;;;;;;5058241;28;20226;-75
2023/03/01 05:08:04;;;;;;;18.48;13.90;;;2.50;41.50;;;;;;5054512;28;20827;-77
2023/03/01 05:10:35;;;;;;;17.88;13.55;;;2.50;42.80;;;;;;5064916;28;20208;-77
2023/03/01 05:13:04;;;;;;;17.67;13.30;;;2.50;42.10;;;;;;5070283;28;20210;-77
2023/03/01 05:15:33;;;;;;;18.02;13.70;;;2.40;42.20;;;;;;5059606;28;20217;-77
2023/03/01 05:18:01;;;;;;;16.40;14.52;;;2.40;41.60;;;;;;5059490;28;20278;-77
2023/03/01 05:20:31;;;;;;;18.20;14.05;;;2.50;43.00;;;;;;5062779;28;20220;-75
2023/03/01 05:23:04;;;;;;;15.75;13.15;;;2.40;42.40;;;;;;5057803;28;20198;-76
2023/03/01 05:25:39;;;;;;;18.70;14.38;;;2.40;42.20;;;;;;5058888;28;20314;-76
2023/03/01 05:28:12;;;;;;;19.02;14.88;;;2.40;44.10;;;;;;5075723;28;20189;-75
2023/03/01 05:30:40;;;;;;;18.98;15.25;;;2.40;43.80;;;;;;5059457;28;20205;-74
2023/03/01 05:33:13;;;;;;;18.27;16.15;;;2.40;44.90;;;;;;5054908;28;20304;-76
2023/03/01 05:35:43;;;;;;;17.08;13.98;;;2.50;44.00;;;;;;5058718;28;20216;-75
2023/03/01 05:38:13;;;;;;;14.15;12.68;;;2.40;43.30;;;;;;5061670;28;20277;-74
2023/03/01 05:40:43;;;;;;;17.08;14.82;;;2.40;43.30;;;;;;5057742;28;20263;-75
2023/03/01 05:43:12;;;;;;;20.33;15.45;;;2.50;45.50;;;;;;5048278;28;20228;-76
2023/03/01 05:45:41;;;;;;;17.27;14.63;;;2.40;44.50;;;;;;5059448;28;20217;-74
2023/03/01 05:48:12;;;;;;;18.70;16.70;;;2.40;45.00;;;;;;5061154;28;21174;-74
2023/03/01 05:50:44;;;;;;;18.75;14.07;;;2.30;45.80;;;;;;5063367;28;20216;-76
2023/03/01 05:53:14;;;;;;;16.77;13.85;;;2.50;48.80;;;;;;5058727;28;20220;-75
2023/03/01 05:55:43;;;;;;;18.48;14.05;;;2.60;47.20;;;;;;5062867;28;20231;-74
2023/03/01 05:58:14;;;;;;;16.60;14.20;;;2.60;47.70;;;;;;5058199;28;20262;-76
2023/03/01 06:00:43;;;;;;;19.13;14.27;;;2.60;47.00;;;;;;5062762;28;20194;-75
2023/03/01 06:03:13;;;;;;;17.13;14.30;;;2.60;47.30;;;;;;5063637;28;20661;-77
2023/03/01 06:05:43;;;;;;;20.73;15.15;;;2.60;48.30;;;;;;5059057;28;20231;-72
2023/03/01 06:08:12;;;;;;;20.20;14.10;;;2.60;46.90;;;;;;5059278;28;20286;-74
2023/03/01 06:10:41;;;;;;;18.00;14.82;;;2.60;47.20;;;;;;5064940;28;20232;-74
2023/03/01 06:13:09;;;;;;;18.35;15.50;;;2.60;49.20;;;;;;5077333;28;20201;-74
2023/03/01 06:15:37;;;;;;;18.02;14.07;;;2.60;49.50;;;;;;5057780;28;20996;-73
2023/03/01 06:18:06;;;;;;;16.58;13.88;;;2.60;48.10;;;;;;5057686;28;20213;-74
2023/03/01 06:20:34;;;;;;;21.10;17.60;;;2.60;50.10;;;;;;5059772;28;20258;-75
2023/03/01 06:23:03;;;;;;;18.92;16.75;;;2.60;50.20;;;;;;5060509;28;20460;-74
2023/03/01 06:25:32;;;;;;;19.10;14.32;;;2.50;50.60;;;;;;5059143;28;20218;-73
2023/03/01 06:28:00;;;;;;;19.27;15.20;;;2.60;52.00;;;;;;5059225;28;20446;-75
2023/03/01 06:30:28;;;;;;;16.77;15.00;;;2.70;52.20;;;;;;5057631;28;20646;-79
2023/03/01 06:33:00;;;;;;;24.17;16.25;;;2.70;50.50;;;;;;5062628;28;20208;-74
2023/03/01 06:35:30;;;;;;;16.13;13.55;;;2.80;52.00;;;;;;5076024;28;20221;-75
2023/03/01 06:38:00;;;;;;;16.80;14.63;;;2.80;51.30;;;;;;5061588;28;20205;-76
2023/03/01 06:40:30;;;;;;;21.77;14.77;;;2.80;52.60;;;;;;5059401;28;20203;-76
2023/03/01 06:43:00;;;;;;;17.17;14.73;;;2.80;52.80;;;;;;5065469;28;20225;-75
2023/03/01 06:45:28;;;;;;;18.67;15.60;;;2.80;54.10;;;;;;5061883;28;20217;-75
2023/03/01 06:48:04;;;;;;;18.83;14.52;;;2.80;52.80;;;;;;5057668;28;20204;-73
2023/03/01 06:50:32;;;;;;;18.00;14.13;;;2.80;53.30;;;;;;5061226;28;20278;-73
2023/03/01 06:53:01;;;;;;;24.85;16.85;;;2.90;54.40;;;;;;5055879;28;20296;-74
2023/03/01 06:55:30;;;;;;;20.58;16.73;;;2.90;53.60;;;;;;5061134;28;20221;-76
2023/03/01 06:58:00;;;;;;;23.85;16.23;;;2.90;53.70;;;;;;5067562;28;20240;-73
2023/03/01 07:00:28;;;;;;;21.20;15.40;;;2.90;53.40;;;;;;5045128;28;20288;-76
2023/03/01 07:03:01;;;;;;;21.23;16.25;;;2.90;52.10;;;;;;5061135;28;20205;-75
2023/03/01 07:05:30;;;;;;;17.50;14.70;;;3.00;52.50;;;;;;5060893;28;20217;-75
2023/03/01 07:07:58;;;;;;;20.88;15.20;;;3.00;52.20;;;;;;5076426;28;20650;-76
2023/03/01 07:10:27;;;;;;;17.95;14.80;;;3.10;52.10;;;;;;5062207;28;20311;-77
2023/03/01 07:12:58;;;;;;;17.23;14.52;;;3.10;51.70;;;;;;5052514;28;20205;-73
2023/03/01 07:15:27;;;;;;;18.40;15.13;;;3.10;51.00;;;;;;5072751;28;20320;-73
2023/03/01 07:17:55;;;;;;;16.52;14.80;;;3.10;49.40;;;;;;5060129;28;20201;-75
2023/03/01 07:20:25;;;;;;;17.85;15.38;;;3.20;50.50;;;;;;5057609;28;20209;-72
2023/03/01 07:22:54;;;;;;;17.20;14.52;;;3.20;50.80;;;;;;5039736;28;20206;-74
2023/03/01 07:25:22;;;;;;;16.63;14.93;;;3.20;50.00;;;;;;5064378;28;20242;-75
2023/03/01 07:27:52;;;;;;;16.58;14.82;;;3.30;66.20;;;;;;5059270;28;20610;-75
2023/03/01 07:30:22;;;;;;;19.30;14.77;;;3.30;51.10;;;;;;5057121;28;20200;-76
2023/03/01 07:32:50;;;;;;;18.85;14.98;;;3.30;51.20;;;;;;5061587;28;20198;-73
2023/03/01 07:35:22;;;;;;;26.20;15.45;;;3.40;49.20;;;;;;5060955;28;20220;-74
2023/03/01 07:37:50;;;;;;;18.67;14.38;;;3.30;48.00;;;;;;5056542;28;20237;-74
2023/03/01 07:40:19;;;;;;;19.33;15.55;;;3.30;49.60;;;;;;5058146;28;20213;-75
2023/03/01 07:42:47;;;;;;;18.60;15.60;;;3.50;51.30;;;;;;5056263;28;20700;-76
2023/03/01 07:45:15;;;;;;;17.38;14.65;;;3.60;54.40;;;;;;5056151;28;20225;-77
2023/03/01 07:47:45;;;;;;;22.15;15.65;;;3.70;53.60;;;;;;5054910;28;20245;-75
2023/03/01 07:50:13;;;;;;;17.08;15.23;;;3.80;52.30;;;;;;5058926;28;20190;-74
2023/03/01 07:52:41;;;;;;;19.40;16.40;;;4.00;53.00;;;;;;5056755;28;20691;-77
2023/03/01 07:55:10;;;;;;;17.65;15.70;;;4.20;54.80;;;;;;5054851;28;20221;-75
2023/03/01 07:57:38;;;;;;;15.73;14.02;;;4.40;52.60;;;;;;5049500;28;20928;-74
2023/03/01 08:00:08;;;;;;;17.48;13.90;;;4.60;52.40;;;;;;5057490;28;20219;-75
2023/03/01 08:02:36;;;;;;;17.80;16.00;;;4.80;51.00;;;;;;5057963;28;20207;-78
2023/03/01 08:05:06;;;;;;;17.95;14.27;;;5.20;52.50;;;;;;5059660;28;20277;-75
2023/03/01 08:07:34;;;;;;;19.35;15.73;;;5.40;48.80;;;;;;5051868;28;20214;-76
2023/03/01 08:10:02;;;;;;;17.48;15.20;;;5.70;51.30;;;;;;5059847;28;20662;-75
2023/03/01 08:12:31;;;;;;;15.80;13.45;;;6.10;52.70;;;;;;5057869;28;20233;-75
2023/03/01 08:14:59;;;;;;;23.50;15.07;;;6.30;49.70;;;;;;5058917;28;20209;-76
2023/03/01 08:17:27;;;;;;;16.92;14.10;;;6.70;51.60;;;;;;5053897;28;20246;-75
2023/03/01 08:19:55;;;;;;;18.65;15.35;;;7.00;50.00;;;;;;5057148;28;20296;-77
2023/03/01 08:22:25;;;;;;;16.80;14.40;;;7.30;48.50;;;;;;5057427;28;20709;-78
2023/03/01 08:24:55;;;;;;;16.13;14.30;;;7.40;44.10;;;;;;5057017;28;20471;-75
2023/03/01 08:27:23;;;;;;;20.87;15.70;;;7.60;44.70;;;;;;5057889;28;20970;-76
2023/03/01 08:29:52;;;;;;;17.05;15.00;;;7.70;40.10;;;;;;5071815;28;20459;-74
2023/03/01 08:32:20;;;;;;;16.80;15.00;;;7.90;42.60;;;;;;5071154;28;20837;-76
2023/03/01 08:34:49;;;;;;;18.07;15.20;;;8.30;43.20;;;;;;5058171;28;20478;-77
2023/03/01 08:37:17;;;;;;;17.03;14.10;;;8.50;42.50;;;;;;5057592;28;20443;-76
2023/03/01 08:39:47;;;;;;;18.77;15.00;;;8.80;41.70;;;;;;5054130;28;20486;-75
2023/03/01 08:42:15;;;;;;;17.17;15.40;;;9.20;43.60;;;;;;5060587;28;20453;-76
2023/03/01 08:44:44;;;;;;;17.80;15.90;;;9.60;45.10;;;;;;5053508;28;20483;-77
2023/03/01 08:47:14;;;;;;;18.03;16.33;;;9.90;58.30;;;;;;5069853;28;20574;-76
2023/03/01 08:49:42;;;;;;;18.60;14.60;;;10.10;44.40;;;;;;5057612;28;20464;-80
2023/03/01 08:52:11;;;;;;;16.47;14.73;;;10.20;39.80;;;;;;5055713;28;20980;-77
2023/03/01 08:54:39;;;;;;;17.00;15.30;;;10.10;37.10;;;;;;5052231;28;20545;-77
2023/03/01 08:57:09;;;;;;;19.23;16.00;;;10.60;40.40;;;;;;5053551;28;20483;-78
2023/03/01 08:59:38;;;;;;;17.83;15.53;;;11.00;42.60;;;;;;5055084;28;20491;-77
2023/03/01 09:02:06;;;;;;;17.60;14.73;;;11.40;45.50;;;;;;5058545;28;21166;-77
2023/03/01 09:04:35;;;;;;;22.10;16.60;;;11.40;41.20;;;;;;5058107;28;20482;-77
2023/03/01 09:07:03;;;;;;;20.83;17.30;;;12.00;44.40;;;;;;5057621;28;20552;-79
2023/03/01 09:09:31;;;;;;;16.60;14.90;;;12.30;45.60;;;;;;5059159;28;20479;-77
2023/03/01 09:11:59;;;;;;;18.50;16.50;;;12.30;43.10;;;;;;5059036;28;21029;-79
2023/03/01 09:14:28;;;;;;;18.70;16.70;;;12.40;41.70;;;;;;5057371;28;20834;-78
2023/03/01 09:16:57;;;;;;;17.97;15.60;;;12.20;38.10;;;;;;5054602;28;21304;-77
2023/03/01 09:19:25;;;;;;;17.90;16.03;;;12.70;43.40;;;;;;5059032;28;20509;-80
2023/03/01 09:21:55;;;;;;;17.60;15.70;;;13.10;46.40;;;;;;5060894;28;20460;-76
2023/03/01 09:24:25;;;;;;;18.50;16.70;;;13.70;51.90;;;;;;5061202;28;21152;-80
2023/03/01 09:26:57;;;;;;;19.33;17.37;;;14.30;55.30;;;;;;5063839;28;20962;-80
2023/03/01 09:29:25;;;;;;;17.30;15.50;;;14.10;49.10;;;;;;5063621;28;20457;-77
2023/03/01 09:31:55;;;;;;;20.10;16.77;;;14.80;54.70;;;;;;5074610;28;20977;-78
2023/03/01 09:34:24;;;;;;;24.00;16.63;;;15.50;60.80;;;;;;5058998;28;20452;-77
2023/03/01 09:36:52;;;;;;;19.20;17.20;;;16.20;68.10;;;;;;5060913;28;20454;-78
2023/03/01 09:39:21;;;;;;;18.47;16.57;;;16.00;62.10;;;;;;5060258;28;20455;-77
2023/03/01 09:41:55;;;;;;;19.40;17.50;;;15.80;56.50;;;;;;5058839;28;20488;-77
2023/03/01 09:44:38;;;;;;;19.17;17.10;;;16.10;60.20;;;;;;5055245;28;20466;-77
2023/03/01 09:47:13;;;;;;;19.27;17.17;;;17.10;71.50;;;;;;5057926;28;20459;-76
2023/03/01 09:49:48;;;;;;;18.30;16.40;;;17.10;70.00;;;;;;5057395;28;20465;-77
2023/03/01 09:52:27;;;;;;;18.07;16.23;;;17.30;70.70;;;;;;5056887;28;20453;-77
2023/03/01 09:54:56;;;;;;;17.47;15.67;;;17.70;75.60;;;;;;5059835;28;20481;-76
2023/03/01 09:57:33;;;;;;;17.80;16.00;;;18.10;78.30;;;;;;5059043;28;20959;-76
2023/03/01 10:00:20;;;;;;;20.30;18.40;;;18.60;85.20;;;;;;5054624;28;20474;-78
2023/03/01 10:02:59;;;;;;;18.20;16.40;;;18.60;82.70;;;;;;5064073;28;21007;-76
2023/03/01 10:05:42;;;;;;;19.40;17.43;;;18.30;77.10;;;;;;5075822;28;20547;-78
2023/03/01 10:08:29;;;;;;;16.57;14.97;;;18.00;73.20;;;;;;5060322;28;20451;-79
2023/03/01 10:10:58;;;;;;;16.83;15.23;;;16.80;72.40;;;;;;5060488;28;20443;-75
2023/03/01 10:13:32;;;;;;;20.23;16.50;;;16.90;56.10;;;;;;5058808;28;20454;-76
2023/03/01 10:16:06;;;;;;;19.57;17.60;;;17.00;57.80;;;;;;5071116;28;21021;-79
2023/03/01 10:18:37;;;;;;;18.97;17.10;;;17.10;60.30;;;;;;5061287;28;20469;-76
2023/03/01 10:21:15;;;;;;;17.23;15.47;;;17.30;60.80;;;;;;5059948;28;20493;-79
2023/03/01 10:23:44;;;;;;;19.57;16.23;;;17.60;64.70;;;;;;5058926;28;20458;-78
2023/03/01 10:26:38;;;;;;;18.23;16.43;;;17.90;68.80;;;;;;5056193;28;20566;-77
2023/03/01 10:29:08;;;;;;;18.80;16.83;;;18.40;74.10;;;;;;5053515;28;20514;-77
2023/03/01 10:31:43;;;;;;;17.77;16.03;;;19.30;86.70;;;;;;5056148;28;20466;-79
2023/03/01 10:34:15;;;;;;;18.40;16.77;;;19.90;92.30;;;;;;5057899;28;20453;-77
2023/03/01 10:36:48;;;;;;;18.43;16.63;;;20.30;94.60;;;;;;5057320;28;20454;-76
2023/03/01 10:39:19;;;;;;;19.57;17.83;;;19.50;85.20;;;;;;5056728;28;20457;-78
2023/03/01 10:41:55;;;;;;;19.20;17.50;;;20.50;93.00;;;;;;5059479;28;20471;-78
2023/03/01 10:44:45;;;;;;;19.70;18.10;;;21.60;99.90;;;;;;5058134;28;20451;-77
2023/03/01 10:47:22;;;;;;;18.83;17.20;;;21.80;99.90;;;;;;5057185;28;20460;-77
2023/03/01 10:50:00;;;;;;;19.00;17.30;;;21.30;98.70;;;;;;5056891;28;20879;-78
2023/03/01 10:52:32;;;;;;;18.37;16.70;;;22.40;99.90;;;;;;5054258;28;20512;-77
2023/03/01 10:55:02;;;;;;;19.20;17.50;;;23.60;99.90;;;;;;5055333;28;20490;-76
2023/03/01 10:57:37;;;;;;;19.13;17.30;;;24.60;99.90;;;;;;5060063;28;20476;-78
2023/03/01 11:00:19;;;;;;;19.40;17.70;;;24.00;99.90;;;;;;5057076;28;20520;-77
2023/03/01 11:02:50;;;;;;;18.17;16.63;;;24.20;99.90;;;;;;5060682;28;20566;-76
2023/03/01 11:05:24;;;;;;;19.63;17.60;;;25.50;99.90;;;;;;5058886;28;20528;-77
2023/03/01 11:07:53;;;;;;;18.00;16.30;;;24.50;99.90;;;;;;5059781;28;20451;-75
2023/03/01 11:10:24;;;;;;;17.53;16.00;;;24.90;99.90;;;;;;5060675;28;21026;-80
2023/03/01 11:12:54;;;;;;;19.77;17.97;;;25.60;99.90;;;;;;5042212;28;20462;-79
2023/03/01 11:15:28;;;;;;;19.50;17.60;;;25.90;99.90;;;;;;5061935;28;20462;-77
2023/03/01 11:17:57;;;;;;;19.83;18.00;;;26.40;99.90;;;;;;5063443;28;20453;-77
2023/03/01 11:20:42;;;;;;;18.50;16.80;;;26.30;99.90;;;;;;5060659;28;20470;-78
2023/03/01 11:23:13;;;;;;;18.13;16.60;;;26.70;99.90;;;;;;5072974;28;20451;-77
2023/03/01 11:25:47;;;;;;;17.43;16.00;;;25.80;99.90;;;;;;5053713;28;20479;-74
2023/03/01 11:28:17;;;;;;;17.80;16.40;;;26.10;99.90;;;;;;5052080;28;20446;-78
2023/03/01 11:30:51;;;;;;;18.10;16.60;;;26.40;99.90;;;;;;5057378;28;20440;-78
2023/03/01 11:33:40;;;;;;;16.80;15.30;;;25.50;99.90;;;;;;5056626;28;20447;-77
2023/03/01 11:36:17;;;;;;;18.77;17.37;;;26.00;99.90;;;;;;5056533;28;20471;-76
2023/03/01 11:38:46;;;;;;;18.20;16.50;;;25.50;99.90;;;;;;5054690;28;20454;-78
2023/03/01 11:41:17;;;;;;;19.33;17.20;;;22.60;98.80;;;;;;5055555;28;20474;-78
2023/03/01 11:43:52;;;;;;;19.33;17.43;;;20.20;69.80;;;;;;5055571;28;20458;-78
2023/03/01 11:46:51;;;;;;;18.10;16.37;;;18.40;45.60;;;;;;5056806;28;20473;-78
2023/03/01 11:49:47;;;;;;;16.93;15.07;;;17.20;31.60;;;;;;5057557;28;20468;-77
2023/03/01 11:52:27;;;;;;;18.03;16.13;;;16.30;24.20;;;;;;5053979;28;20997;-77
2023/03/01 11:55:09;;;;;;;17.33;15.50;;;15.90;21.30;;;;;;5055731;28;20474;-81
2023/03/01 11:57:50;;;;;;;20.27;16.93;;;15.30;16.30;;;;;;5050823;28;20823;-79
2023/03/01 12:00:35;;;;;;;22.53;16.40;;;15.00;14.10;;;;;;5061622;28;20472;-76
2023/03/01 12:03:24;;;;;;;17.70;15.03;;;14.50;10.60;;;;;;5057007;28;20486;-77
2023/03/01 12:06:28;;;;;;;17.00;15.40;;;14.40;8.80;;;;;;5058167;28;20524;-76
2023/03/01 12:09:15;;;;;;;16.37;14.67;;;14.30;9.10;;;;;;5055957;28;20456;-77
2023/03/01 12:12:02;;;;;;;17.20;15.60;;;14.00;6.80;;;;;;5053148;28;20457;-76
2023/03/01 12:14:50;;;;;;;15.73;14.33;;;14.00;6.50;;;;;;5053670;28;20478;-77
2023/03/01 12:17:37;;;;;;;18.67;15.50;;;13.90;5.60;;;;;;5055890;28;20445;-76
2023/03/01 12:20:22;;;;;;;16.60;14.90;;;13.80;5.50;;;;;;5052294;28;20457;-77
2023/03/01 12:23:13;;;;;;;15.63;14.10;;;13.80;6.50;;;;;;5054714;28;20459;-74
2023/03/01 12:25:56;;;;;;;16.10;14.50;;;13.80;6.00;;;;;;5055988;28;21280;-76
2023/03/01 12:28:37;;;;;;;18.30;15.33;;;13.90;7.70;;;;;;5059184;28;20451;-77
2023/03/01 12:31:26;;;;;;;15.80;14.13;;;13.80;6.10;;;;;;5054520;28;20457;-77
2023/03/01 12:34:01;;;;;;;18.40;16.60;;;13.70;5.90;;;;;;5056298;28;20443;-76
2023/03/01 12:37:00;;;;;;;15.53;13.97;;;13.80;7.30;;;;;;5054370;28;20482;-75
2023/03/01 12:39:42;;;;;;;16.20;14.53;;;13.80;6.30;;;;;;5045965;28;20539;-77
2023/03/01 12:42:22;;;;;;;17.07;14.63;;;13.40;3.00;;;;;;5054668;28;21109;-77
2023/03/01 12:45:06;;;;;;;19.53;15.50;;;13.30;3.10;;;;;;5056052;28;20473;-73
2023/03/01 12:47:59;;;;;;;16.57;15.00;;;13.30;2.50;;;;;;5056460;28;21169;-76
2023/03/01 12:50:37;;;;;;;16.17;14.57;;;13.50;4.60;;;;;;5069943;28;20449;-76
2023/03/01 12:53:05;;;;;;;23.40;16.03;;;13.50;5.60;;;;;;5054210;28;20448;-76
2023/03/01 12:55:37;;;;;;;17.23;15.63;;;13.50;5.50;;;;;;5055659;28;20489;-76
2023/03/01 12:58:20;;;;;;;16.40;14.80;;;13.50;6.20;;;;;;5059926;28;20446;-77
2023/03/01 13:01:01;;;;;;;16.63;14.10;;;13.60;6.40;;;;;;5058960;28;20461;-74